Terminal Aerodrome Forecast
Issued by NWS Albany, NY

Home | Current Version | Previous Version | Text Only | Print | Product List | Glossary On
Versions: 1 2 3 4 5 6 7 8 9 10 11 12 13 14 15 16 17 18 19
000
FTUS41 KALY 301700
TAFGFL
TAF
KGFL 301733Z 3018/3118 20010G16KT P6SM SCT040
     FM310000 19005KT P6SM FEW020 SCT040 BKN150
     FM310600 19004KT 5SM BR SCT015 OVC020
     FM311500 19006KT P6SM VCSH SCT015 OVC025=

USA.gov is the U.S. government's official web portal to all federal, state and local government web resources and services.